Time;durP1;ratioP1;P1;durP2;ratioP2;P2;SDS_P1;SDS_P2;PMS_P1;PMS_P2;Temp;Humidity;BMP_temperature;BMP_pressure;BME280_temperature;BME280_humidity;BME280_pressure;Samples;Min_cycle;Max_cycle;Signal;HPM_P1;HPM_P2
2022/08/12 00:43:37;;;;;;;7.18;3.88;;;;;;;18.79;88.50;100808.19;4957072;28;20791;-68
2022/08/12 00:48:48;;;;;;;4.40;3.45;;;;;;;18.60;91.01;100808.75;4955145;28;20058;-68
2022/08/12 00:51:13;;;;;;;7.93;3.67;;;;;;;18.52;91.08;100802.34;4953023;28;20035;-68
2022/08/12 00:53:39;;;;;;;5.57;3.45;;;;;;;18.47;92.08;100801.78;4970431;28;20367;-68
2022/08/12 00:56:05;;;;;;;5.07;3.25;;;;;;;18.41;92.88;100807.59;4954060;28;20117;-68
2022/08/12 00:58:32;;;;;;;5.32;3.53;;;;;;;18.30;94.07;100795.94;4959782;28;20110;-68
2022/08/12 01:01:06;;;;;;;5.85;3.55;;;;;;;18.27;95.85;100790.84;4953801;28;20108;-68
2022/08/12 01:11:52;;;;;;;6.53;3.63;;;;;;;18.38;100.00;100804.19;4953786;28;20126;-68
2022/08/12 01:14:19;;;;;;;6.57;4.03;;;;;;;18.23;100.00;100769.91;4954089;29;20532;-68
2022/08/12 01:16:47;;;;;;;5.43;3.72;;;;;;;18.42;99.21;100811.97;4945910;28;20131;-68
2022/08/12 01:19:12;;;;;;;5.72;4.07;;;;;;;18.39;100.00;100810.34;4944387;29;20065;-68
2022/08/12 01:22:08;;;;;;;5.70;3.22;;;;;;;18.37;100.00;100807.81;4953457;28;20055;-68
2022/08/12 01:25:04;;;;;;;5.00;3.25;;;;;;;18.35;100.00;100812.41;4953633;28;20063;-68
2022/08/12 01:27:33;;;;;;;6.30;3.40;;;;;;;18.27;100.00;100809.47;4975469;28;20038;-68
2022/08/12 01:29:59;;;;;;;5.60;3.75;;;;;;;18.20;100.00;100808.25;4947197;28;20035;-68
2022/08/12 01:32:26;;;;;;;8.23;4.22;;;;;;;18.18;100.00;100815.47;4965827;28;20529;-68
2022/08/12 01:35:04;;;;;;;6.40;4.10;;;;;;;18.08;100.00;100810.97;4953210;28;20031;-68
2022/08/12 01:37:35;;;;;;;8.10;3.67;;;;;;;18.03;100.00;100813.13;4953424;28;20073;-68
2022/08/12 01:40:02;;;;;;;5.85;3.50;;;;;;;17.97;100.00;100813.59;4946384;28;20530;-68
2022/08/12 01:42:32;;;;;;;9.65;3.55;;;;;;;17.87;100.00;100818.75;4945991;28;20031;-67
2022/08/12 01:44:58;;;;;;;10.50;3.70;;;;;;;17.79;100.00;100815.78;4947601;28;20114;-68
2022/08/12 01:47:29;;;;;;;5.53;3.72;;;;;;;17.66;100.00;100812.31;4941783;28;20028;-68
2022/08/12 01:50:23;;;;;;;8.55;4.22;;;;;;;17.56;100.00;100813.97;4948317;28;20067;-68
2022/08/12 01:52:58;;;;;;;5.70;3.72;;;;;;;17.48;100.00;100813.63;4952912;29;20030;-68
2022/08/12 01:55:28;;;;;;;6.03;3.80;;;;;;;17.42;100.00;100808.75;4936065;29;20078;-68
2022/08/12 01:58:05;;;;;;;5.95;3.70;;;;;;;17.35;100.00;100790.59;4931710;28;20038;-68
2022/08/12 02:00:47;;;;;;;7.75;3.85;;;;;;;17.40;100.00;100813.34;4934636;29;20110;-68
2022/08/12 02:03:26;;;;;;;4.72;3.50;;;;;;;17.32;100.00;100806.75;4952430;29;20365;-68
2022/08/12 02:12:01;;;;;;;6.97;4.10;;;;;;;17.55;100.00;100806.91;4942141;29;20123;-68
2022/08/12 02:14:52;;;;;;;9.25;3.53;;;;;;;17.63;100.00;100805.44;4937004;28;20497;-67
2022/08/12 02:17:42;;;;;;;4.55;3.17;;;;;;;17.71;100.00;100803.03;4945336;29;20066;-68
2022/08/12 02:20:11;;;;;;;5.47;3.55;;;;;;;17.78;100.00;100806.94;4952726;28;20038;-69
2022/08/12 02:22:38;;;;;;;5.03;3.80;;;;;;;17.82;100.00;100803.13;4942057;28;20482;-67
2022/08/12 02:25:37;;;;;;;6.18;3.63;;;;;;;17.83;100.00;100798.66;4936000;28;20362;-67
2022/08/12 02:28:04;;;;;;;8.65;4.32;;;;;;;17.83;100.00;100796.84;4917923;28;20051;-67
2022/08/12 02:30:30;;;;;;;5.97;4.20;;;;;;;17.81;100.00;100796.09;4919411;28;20020;-67
2022/08/12 02:32:58;;;;;;;9.38;3.88;;;;;;;17.79;100.00;100794.50;4939484;28;20360;-68
2022/08/12 02:35:30;;;;;;;7.32;4.30;;;;;;;17.79;100.00;100797.19;4951068;28;20031;-68
2022/08/12 02:37:58;;;;;;;8.52;4.18;;;;;;;17.73;100.00;100787.84;4947697;28;20043;-68
2022/08/12 02:40:25;;;;;;;8.77;3.95;;;;;;;17.75;100.00;100787.72;4950383;28;20122;-68
2022/08/12 02:43:13;;;;;;;7.57;4.13;;;;;;;17.76;100.00;100792.09;4952977;28;20028;-68
2022/08/12 02:45:45;;;;;;;6.32;3.65;;;;;;;17.76;100.00;100794.75;5017961;28;20031;-68
2022/08/12 02:48:20;;;;;;;6.20;3.85;;;;;;;17.78;100.00;100795.47;4942580;28;20034;-68
2022/08/12 02:50:50;;;;;;;13.48;4.82;;;;;;;17.77;100.00;100799.09;4935227;29;20050;-68
2022/08/12 02:53:16;;;;;;;7.03;3.70;;;;;;;17.74;100.00;100797.50;4950895;28;20462;-68
2022/08/12 02:55:44;;;;;;;5.88;3.90;;;;;;;17.71;100.00;100796.91;4946894;29;20110;-69
2022/08/12 02:58:11;;;;;;;6.43;4.35;;;;;;;17.64;100.00;100796.47;4951008;28;20173;-69
2022/08/12 03:00:37;;;;;;;6.18;3.90;;;;;;;17.54;100.00;100783.97;4948202;28;20098;-69
2022/08/12 03:03:06;;;;;;;7.63;4.13;;;;;;;17.58;100.00;100796.06;4952029;28;20038;-69
2022/08/12 03:05:34;;;;;;;11.20;4.25;;;;;;;17.53;100.00;100795.53;4952415;28;20121;-68
2022/08/12 03:08:03;;;;;;;8.07;4.05;;;;;;;17.53;100.00;100784.91;4952590;29;20035;-68
2022/08/12 03:10:33;;;;;;;11.57;4.03;;;;;;;17.54;100.00;100789.28;4951570;28;20103;-67
2022/08/12 03:12:59;;;;;;;6.10;4.10;;;;;;;17.56;100.00;100787.38;4944356;28;20027;-67
2022/08/12 03:15:26;;;;;;;4.90;3.63;;;;;;;17.59;100.00;100785.34;4904298;28;20037;-67
2022/08/12 03:18:07;;;;;;;14.27;4.43;;;;;;;17.63;100.00;100785.97;4950248;28;20035;-67
2022/08/12 03:20:39;;;;;;;7.15;3.95;;;;;;;17.68;100.00;100791.78;4941825;28;20413;-67
2022/08/12 03:23:08;;;;;;;7.18;4.07;;;;;;;17.66;100.00;100786.59;4951945;29;20441;-67
2022/08/12 03:25:37;;;;;;;9.50;4.28;;;;;;;17.35;100.00;100729.50;4948054;28;20059;-67
2022/08/12 03:28:03;;;;;;;5.88;3.83;;;;;;;17.73;100.00;100789.66;4951261;28;20050;-67
2022/08/12 03:30:31;;;;;;;6.40;3.85;;;;;;;17.64;100.00;100763.75;4948304;28;20112;-68
2022/08/12 03:33:01;;;;;;;7.18;4.30;;;;;;;17.73;100.00;100784.34;4951652;29;20043;-68
2022/08/12 03:35:31;;;;;;;17.38;4.40;;;;;;;17.76;100.00;100786.78;4951482;28;20031;-68
2022/08/12 03:38:01;;;;;;;11.32;4.68;;;;;;;17.71;100.00;100781.78;4951773;28;20503;-68
2022/08/12 04:00:27;;;;;;;6.90;3.85;;;;;;;17.49;100.00;100780.78;4950298;28;20857;-68
2022/08/12 04:03:00;;;;;;;6.07;4.20;;;;;;;17.38;100.00;100776.25;4949645;28;20394;-68
2022/08/12 04:05:27;;;;;;;8.65;3.53;;;;;;;17.37;100.00;100788.66;4951743;28;20042;-68
2022/08/12 04:07:54;;;;;;;7.32;4.05;;;;;;;17.32;100.00;100790.81;4948933;28;20027;-68
2022/08/12 04:10:19;;;;;;;7.20;4.60;;;;;;;17.26;100.00;100793.94;4964037;28;20023;-68
2022/08/12 04:15:42;;;;;;;8.30;4.60;;;;;;;17.20;100.00;100789.03;4946629;28;20086;-68
2022/08/12 04:18:08;;;;;;;7.38;4.40;;;;;;;17.13;100.00;100785.13;4950930;29;20050;-68
2022/08/12 04:20:34;;;;;;;6.22;3.80;;;;;;;17.15;100.00;100792.97;4919900;28;20425;-68
2022/08/12 04:23:01;;;;;;;6.72;4.20;;;;;;;17.12;100.00;100799.38;4947892;28;20106;-67
2022/08/12 04:25:27;;;;;;;9.90;4.25;;;;;;;17.05;100.00;100792.78;4949883;28;20200;-68
2022/08/12 04:27:53;;;;;;;7.70;4.85;;;;;;;16.96;100.00;100790.78;4932937;28;20067;-67
2022/08/12 04:30:19;;;;;;;8.07;4.78;;;;;;;16.90;100.00;100791.19;4951971;28;20030;-67
2022/08/12 04:32:46;;;;;;;7.05;4.55;;;;;;;16.80;100.00;100776.88;4968345;28;20035;-67
2022/08/12 04:35:12;;;;;;;13.15;5.38;;;;;;;16.77;100.00;100782.38;4954057;28;20031;-67
2022/08/12 04:37:37;;;;;;;6.03;4.45;;;;;;;16.70;100.00;100775.81;4953987;29;20081;-66
2022/08/12 04:40:03;;;;;;;8.05;4.60;;;;;;;16.70;100.00;100781.13;4954385;28;20106;-67
2022/08/12 04:42:29;;;;;;;5.82;4.10;;;;;;;16.64;100.00;100782.41;4953313;28;20031;-68
2022/08/12 04:44:54;;;;;;;8.95;5.38;;;;;;;16.67;100.00;100781.34;4953604;28;20503;-68
2022/08/12 04:47:20;;;;;;;7.72;4.78;;;;;;;16.41;100.00;100731.84;4953687;28;20039;-67
2022/08/12 04:49:46;;;;;;;5.65;4.07;;;;;;;16.74;100.00;100787.91;4951903;28;20035;-68
2022/08/12 04:52:13;;;;;;;7.35;4.40;;;;;;;16.79;100.00;100785.81;4951479;28;20385;-68
2022/08/12 04:54:38;;;;;;;7.45;4.00;;;;;;;16.89;100.00;100792.16;4952061;28;20061;-68
2022/08/12 04:57:04;;;;;;;9.43;4.30;;;;;;;16.97;100.00;100781.84;4953969;28;20035;-67
2022/08/12 04:59:31;;;;;;;6.28;3.88;;;;;;;17.10;100.00;100790.63;4953808;28;20031;-67
2022/08/12 05:01:56;;;;;;;6.47;4.43;;;;;;;17.18;100.00;100785.66;4953842;28;20382;-68
2022/08/12 05:04:24;;;;;;;6.05;3.70;;;;;;;17.29;100.00;100785.72;4953752;28;20027;-67
2022/08/12 05:06:50;;;;;;;7.90;4.53;;;;;;;17.42;100.00;100791.00;4954269;29;20424;-67
2022/08/12 05:09:15;;;;;;;7.38;4.03;;;;;;;17.56;100.00;100792.69;4952970;28;20085;-67
2022/08/12 05:11:41;;;;;;;6.53;3.85;;;;;;;17.62;100.00;100786.94;4938470;28;20077;-67
2022/08/12 05:14:06;;;;;;;8.48;4.38;;;;;;;17.74;100.00;100802.00;4939699;28;20400;-67
2022/08/12 05:16:34;;;;;;;7.93;4.25;;;;;;;17.82;100.00;100796.94;4940422;28;20054;-68
2022/08/12 05:18:59;;;;;;;6.85;3.70;;;;;;;17.83;100.00;100791.53;4936476;29;20031;-67
2022/08/12 05:21:25;;;;;;;8.48;4.60;;;;;;;17.91;100.00;100788.31;4946744;28;20042;-68
2022/08/12 05:23:50;;;;;;;6.97;4.53;;;;;;;18.03;100.00;100795.38;4935049;28;20089;-67
2022/08/12 05:26:15;;;;;;;10.18;4.45;;;;;;;18.05;100.00;100790.75;4938961;28;20037;-67
2022/08/12 05:28:41;;;;;;;6.80;3.83;;;;;;;18.13;100.00;100785.72;4934633;28;20020;-68
2022/08/12 05:31:06;;;;;;;7.85;4.10;;;;;;;18.21;100.00;100804.63;4939281;29;20032;-67
2022/08/12 05:33:39;;;;;;;5.30;3.80;;;;;;;18.31;100.00;100805.63;4949121;28;20111;-67
2022/08/12 05:36:11;;;;;;;6.72;3.80;;;;;;;18.35;100.00;100804.41;4937515;28;20038;-68
2022/08/12 05:38:55;;;;;;;11.82;3.92;;;;;;;18.44;100.00;100807.34;4958778;28;20031;-67
2022/08/12 05:41:31;;;;;;;5.85;3.28;;;;;;;18.55;100.00;100815.41;4951319;28;20027;-67
2022/08/12 05:43:57;;;;;;;7.18;4.20;;;;;;;18.67;100.00;100819.78;4939080;28;20031;-67
2022/08/12 05:46:24;;;;;;;8.07;3.58;;;;;;;18.74;100.00;100815.69;4935657;28;20601;-67
2022/08/12 05:48:53;;;;;;;5.47;3.53;;;;;;;18.85;100.00;100823.69;4947918;28;20046;-67
2022/08/12 05:51:19;;;;;;;10.65;4.13;;;;;;;18.94;100.00;100814.97;4940282;28;20393;-67
2022/08/12 05:53:44;;;;;;;5.43;3.40;;;;;;;18.95;100.00;100811.34;4936449;28;20040;-67
2022/08/12 05:56:24;;;;;;;7.82;3.90;;;;;;;19.06;100.00;100814.00;4938849;28;20035;-67
2022/08/12 05:58:50;;;;;;;7.18;4.20;;;;;;;19.17;100.00;100811.34;4951027;28;20031;-67
2022/08/12 06:01:16;;;;;;;6.15;3.45;;;;;;;19.30;100.00;100811.22;4952089;28;20067;-67
2022/08/12 06:03:42;;;;;;;9.10;3.90;;;;;;;19.25;100.00;100789.41;4951611;28;20027;-66
2022/08/12 06:06:09;;;;;;;7.32;3.65;;;;;;;19.47;100.00;100808.06;4952721;28;20501;-67
2022/08/12 06:08:34;;;;;;;9.20;4.95;;;;;;;19.52;99.81;100802.38;4951154;28;20176;-67
2022/08/12 06:11:01;;;;;;;10.18;3.95;;;;;;;19.66;100.00;100812.78;4942248;28;20058;-67
2022/08/12 06:13:28;;;;;;;5.80;3.15;;;;;;;19.73;99.87;100814.84;4928694;28;20031;-67
2022/08/12 06:15:53;;;;;;;7.85;3.92;;;;;;;19.80;98.89;100810.66;4947271;28;20118;-67
2022/08/12 06:18:19;;;;;;;6.88;3.83;;;;;;;19.82;98.47;100799.88;4952385;28;20114;-67
2022/08/12 06:20:48;;;;;;;6.63;4.28;;;;;;;19.89;96.38;100793.06;4952023;28;20038;-67
2022/08/12 06:23:14;;;;;;;7.40;3.58;;;;;;;20.06;95.32;100800.53;4951970;28;20023;-67
2022/08/12 06:25:40;;;;;;;6.97;3.65;;;;;;;20.08;94.49;100801.22;4953159;28;20492;-67
2022/08/12 06:28:16;;;;;;;5.85;3.72;;;;;;;20.25;94.62;100813.16;4938406;28;20043;-67
2022/08/12 06:30:43;;;;;;;9.18;4.13;;;;;;;20.32;94.01;100822.38;4933628;28;20186;-67
2022/08/12 06:33:09;;;;;;;10.65;3.60;;;;;;;20.31;94.11;100802.84;4938661;28;20028;-67
2022/08/12 06:35:35;;;;;;;10.45;4.30;;;;;;;20.34;93.65;100796.44;4947398;28;20035;-67
2022/08/12 06:38:02;;;;;;;7.45;4.28;;;;;;;20.45;93.03;100804.34;4950605;28;20088;-67
2022/08/12 06:43:12;;;;;;;5.95;3.90;;;;;;;20.65;91.83;100808.03;4952220;29;20105;-67
2022/08/12 06:45:44;;;;;;;4.97;3.15;;;;;;;20.71;91.44;100804.81;4950969;28;20031;-67
2022/08/12 06:48:10;;;;;;;9.73;4.00;;;;;;;20.77;91.10;100812.31;4943477;28;20467;-66
2022/08/12 06:50:36;;;;;;;7.40;3.88;;;;;;;20.86;90.52;100804.34;4933445;28;20451;-66
2022/08/12 06:53:04;;;;;;;7.78;3.72;;;;;;;20.94;88.96;100797.47;4937526;28;20077;-67
2022/08/12 06:55:30;;;;;;;6.95;3.70;;;;;;;21.00;88.46;100805.81;4933755;28;20028;-66
2022/08/12 06:57:59;;;;;;;7.20;3.92;;;;;;;21.07;88.02;100809.66;4951502;28;20031;-66
2022/08/12 07:00:26;;;;;;;5.05;3.38;;;;;;;21.12;87.96;100807.47;4952099;29;20039;-67
2022/08/12 07:02:54;;;;;;;6.47;4.07;;;;;;;21.17;87.97;100807.88;4950380;28;20046;-66
2022/08/12 07:05:23;;;;;;;5.45;3.50;;;;;;;21.24;87.55;100814.41;4952104;28;20027;-66
2022/08/12 07:07:52;;;;;;;6.72;3.72;;;;;;;21.31;87.43;100812.03;4944773;28;20038;-65
2022/08/12 07:10:18;;;;;;;7.68;4.05;;;;;;;21.27;87.09;100798.06;4932849;28;20122;-66
2022/08/12 07:12:44;;;;;;;6.55;3.42;;;;;;;21.47;87.06;100808.81;4937263;28;20050;-66
2022/08/12 07:15:10;;;;;;;10.30;4.72;;;;;;;21.55;86.34;100809.84;4944368;28;20027;-66
2022/08/12 07:17:39;;;;;;;6.63;3.22;;;;;;;21.61;87.06;100821.81;4934956;28;20043;-66
2022/08/12 07:20:11;;;;;;;6.22;3.65;;;;;;;21.65;86.21;100812.53;4938808;28;20028;-66
2022/08/12 07:22:38;;;;;;;6.13;3.88;;;;;;;21.71;86.48;100818.19;4938058;29;20035;-66
2022/08/12 07:27:51;;;;;;;;;;;;;;;21.87;84.63;100817.63;4935735;28;20051;-66
2022/08/12 07:30:17;;;;;;;8.90;3.70;;;;;;;21.95;83.98;100819.66;4937402;28;19930;-67
2022/08/12 07:32:46;;;;;;;7.78;3.47;;;;;;;21.96;84.18;100805.31;4939917;28;20501;-67
2022/08/12 07:35:11;;;;;;;11.25;4.00;;;;;;;21.92;83.58;100799.38;4936940;28;20034;-67
2022/08/12 07:37:40;;;;;;;4.30;2.90;;;;;;;21.92;83.43;100791.34;4947460;28;20122;-67
2022/08/12 07:40:10;;;;;;;6.85;3.75;;;;;;;22.15;82.70;100806.16;4949566;28;20405;-67
2022/08/12 07:42:36;;;;;;;8.07;3.65;;;;;;;22.27;81.65;100810.34;4950761;28;20038;-67
2022/08/12 07:45:03;;;;;;;8.63;3.45;;;;;;;22.36;80.87;100814.88;4950652;29;20100;-67
2022/08/12 07:47:29;;;;;;;11.18;2.92;;;;;;;22.46;79.92;100814.88;4943571;28;20453;-67
2022/08/12 07:49:55;;;;;;;4.55;3.10;;;;;;;22.48;79.28;100806.69;4934039;28;20034;-67
2022/08/12 07:52:20;;;;;;;9.88;3.42;;;;;;;22.63;78.84;100815.97;4936505;28;20027;-66
2022/08/12 07:54:46;;;;;;;5.32;3.25;;;;;;;22.72;77.74;100815.97;4923045;28;20051;-66
2022/08/12 07:57:13;;;;;;;7.53;3.40;;;;;;;22.85;77.75;100815.66;4942286;28;20035;-67
2022/08/12 07:59:39;;;;;;;5.60;3.20;;;;;;;22.98;77.58;100816.22;4950335;28;20023;-67
2022/08/12 08:02:07;;;;;;;5.20;3.63;;;;;;;23.06;77.60;100813.63;4950579;28;20042;-67
2022/08/12 08:07:17;;;;;;;6.32;3.20;;;;;;;23.27;76.53;100818.75;4937674;28;20093;-66
2022/08/12 08:09:42;;;;;;;7.72;3.67;;;;;;;23.34;76.95;100809.97;4941815;28;20023;-67
2022/08/12 08:14:54;;;;;;;9.73;4.20;;;;;;;23.14;75.66;100752.06;4934008;28;20038;-67
2022/08/12 08:17:20;;;;;;;9.98;3.55;;;;;;;23.56;75.81;100808.75;4946915;28;20106;-67
2022/08/12 08:19:51;;;;;;;11.98;3.95;;;;;;;23.67;73.96;100807.69;4952063;28;20162;-67
2022/08/12 08:22:17;;;;;;;6.50;3.17;;;;;;;23.74;73.71;100808.78;4944595;28;20038;-66
2022/08/12 08:24:44;;;;;;;9.00;3.65;;;;;;;23.84;72.97;100814.94;4940320;28;20035;-67
2022/08/12 08:27:10;;;;;;;9.75;3.30;;;;;;;23.70;72.01;100784.09;4940954;28;20039;-67
2022/08/12 08:29:35;;;;;;;5.82;3.10;;;;;;;23.91;72.59;100816.88;4935454;28;20032;-67
2022/08/12 08:32:03;;;;;;;11.57;3.75;;;;;;;24.12;72.19;100824.66;4937295;28;20042;-66
2022/08/12 08:34:33;;;;;;;20.05;3.20;;;;;;;24.21;71.80;100817.50;4937217;28;20032;-67
2022/08/12 08:36:59;;;;;;;8.85;3.80;;;;;;;24.25;70.12;100817.06;4940757;28;20053;-67
2022/08/12 08:39:26;;;;;;;7.63;2.88;;;;;;;24.33;70.02;100824.34;4954066;28;20525;-67
2022/08/12 08:44:36;;;;;;;5.88;3.25;;;;;;;24.53;69.11;100817.81;4952494;28;20046;-67
2022/08/12 08:47:04;;;;;;;5.82;3.33;;;;;;;24.60;67.99;100812.63;4935182;28;20035;-67
2022/08/12 08:49:30;;;;;;;6.00;3.03;;;;;;;24.74;67.76;100817.44;4941165;28;20027;-67
2022/08/12 08:51:55;;;;;;;9.50;3.05;;;;;;;24.72;66.01;100795.25;4937522;28;20483;-66
2022/08/12 08:54:20;;;;;;;4.95;2.85;;;;;;;24.94;65.97;100816.28;4940267;28;20434;-67
2022/08/12 08:56:48;;;;;;;6.55;3.03;;;;;;;25.01;64.78;100819.97;4938747;28;20027;-67
2022/08/12 08:59:15;;;;;;;5.80;2.72;;;;;;;25.13;65.01;100821.41;4953554;28;20036;-67
2022/08/12 09:01:41;;;;;;;5.68;2.40;;;;;;;25.21;63.63;100817.94;4950748;28;20556;-66
2022/08/12 09:04:09;;;;;;;6.75;2.65;;;;;;;25.37;63.15;100823.38;4953182;28;20291;-66
2022/08/12 09:06:35;;;;;;;4.30;2.60;;;;;;;25.25;63.03;100795.03;4953268;28;20418;-67
2022/08/12 09:09:02;;;;;;;5.40;2.70;;;;;;;25.48;62.70;100811.47;4935458;28;20081;-67
2022/08/12 09:14:11;;;;;;;12.50;2.72;;;;;;;25.78;60.44;100816.31;4934994;28;20082;-66
2022/08/12 09:16:38;;;;;;;5.05;2.78;;;;;;;25.83;60.30;100808.56;4938207;28;20036;-66
2022/08/12 09:19:07;;;;;;;7.00;2.72;;;;;;;25.90;61.09;100814.97;4936073;28;20028;-67
2022/08/12 09:21:33;;;;;;;14.05;2.63;;;;;;;25.95;60.81;100815.34;4937431;28;20027;-67
2022/08/12 09:23:59;;;;;;;6.72;2.92;;;;;;;26.04;60.15;100806.25;4937916;28;20073;-67
2022/08/12 09:26:28;;;;;;;9.75;2.55;;;;;;;26.13;60.09;100802.56;4936595;28;20062;-66
2022/08/12 09:28:54;;;;;;;9.77;2.70;;;;;;;26.25;59.12;100809.34;4940490;28;20105;-67
2022/08/12 09:31:20;;;;;;;4.10;2.28;;;;;;;26.31;58.65;100805.97;4936827;28;20427;-66
2022/08/12 09:33:46;;;;;;;5.80;2.13;;;;;;;26.37;58.34;100802.59;4935238;28;20074;-67
2022/08/12 09:36:13;;;;;;;3.72;2.13;;;;;;;26.50;57.72;100809.34;4936415;28;20035;-66
2022/08/12 09:38:39;;;;;;;3.88;1.95;;;;;;;26.55;58.06;100798.88;4949428;29;20027;-66
2022/08/12 09:41:05;;;;;;;8.32;2.70;;;;;;;26.67;57.80;100802.91;4946938;28;20103;-66
2022/08/12 09:46:16;;;;;;;4.60;2.58;;;;;;;26.84;57.59;100802.75;4938679;28;20122;-66
2022/08/12 09:48:43;;;;;;;4.25;2.15;;;;;;;26.91;56.93;100798.34;4931471;28;20379;-67
2022/08/12 09:51:11;;;;;;;8.18;2.65;;;;;;;26.96;56.68;100789.75;4936629;28;20085;-66
2022/08/12 09:53:37;;;;;;;10.50;2.65;;;;;;;27.03;56.53;100793.44;4939215;28;20048;-67
2022/08/12 09:56:03;;;;;;;6.65;2.30;;;;;;;27.10;55.73;100794.41;4935339;28;20035;-67
2022/08/12 09:58:28;;;;;;;5.30;2.20;;;;;;;27.17;54.58;100798.13;4952465;28;20531;-66
2022/08/12 10:01:03;;;;;;;6.28;2.03;;;;;;;27.24;54.60;100793.66;4945860;28;20043;-67
2022/08/12 10:03:30;;;;;;;8.48;2.00;;;;;;;27.37;54.01;100785.03;4951522;28;20114;-66
2022/08/12 10:05:57;;;;;;;7.30;2.05;;;;;;;27.49;53.46;100782.81;4951497;28;20031;-67
2022/08/12 10:08:26;;;;;;;5.88;2.58;;;;;;;27.56;53.14;100786.47;4939482;28;20031;-66
2022/08/12 10:13:42;;;;;;;6.47;2.15;;;;;;;27.60;51.65;100777.00;4938228;28;20054;-66
2022/08/12 10:16:12;;;;;;;8.25;2.45;;;;;;;27.53;51.62;100757.13;4948987;28;20085;-66
2022/08/12 10:19:01;;;;;;;4.25;2.08;;;;;;;27.75;51.55;100775.22;4951373;28;20031;-67
2022/08/12 10:21:39;;;;;;;5.80;2.63;;;;;;;27.85;51.72;100765.00;4951995;28;20504;-66
2022/08/12 10:24:21;;;;;;;6.43;2.42;;;;;;;27.95;52.08;100765.63;4952673;28;20035;-66
2022/08/12 10:29:46;;;;;;;24.98;4.38;;;;;;;28.15;51.12;100747.94;4946301;28;20092;-66
2022/08/12 10:32:22;;;;;;;6.15;1.98;;;;;;;28.15;50.84;100750.66;4934360;28;20054;-66
2022/08/12 10:34:47;;;;;;;7.95;2.60;;;;;;;28.07;51.16;100710.16;4947010;28;20039;-66
2022/08/12 10:37:13;;;;;;;15.02;3.70;;;;;;;28.25;49.92;100737.72;4951571;28;20501;-66
2022/08/12 10:39:39;;;;;;;5.45;2.45;;;;;;;28.45;49.91;100745.31;4944501;28;20024;-66
2022/08/12 10:45:06;;;;;;;34.70;4.85;;;;;;;28.64;49.76;100742.06;4909561;28;20040;-66
2022/08/12 10:47:34;;;;;;;16.55;3.22;;;;;;;28.75;49.23;100733.53;4940494;28;20031;-66
2022/08/12 10:49:59;;;;;;;8.60;2.85;;;;;;;28.78;49.01;100741.25;4932558;28;20224;-66
2022/08/12 10:52:30;;;;;;;17.13;3.53;;;;;;;28.86;49.04;100733.88;4936177;28;20141;-66
2022/08/12 10:54:57;;;;;;;8.55;2.60;;;;;;;28.95;48.42;100737.34;4945411;28;20027;-66
2022/08/12 10:57:25;;;;;;;16.75;2.95;;;;;;;29.01;48.04;100736.59;4952088;28;20035;-66
2022/08/12 10:59:54;;;;;;;6.22;2.22;;;;;;;29.02;47.71;100735.56;4929962;28;20031;-66
2022/08/12 11:02:19;;;;;;;18.05;3.08;;;;;;;29.09;48.16;100736.50;4934917;28;20166;-66
2022/08/12 11:04:44;;;;;;;8.95;2.80;;;;;;;29.19;47.69;100726.22;4942829;28;20503;-66
2022/08/12 11:07:12;;;;;;;12.57;2.88;;;;;;;29.08;47.67;100696.91;4936973;28;20040;-66
2022/08/12 11:09:37;;;;;;;11.23;3.40;;;;;;;29.32;47.85;100728.28;4936616;28;20241;-66
2022/08/12 11:12:05;;;;;;;13.80;2.70;;;;;;;29.38;47.45;100731.06;4932145;28;20126;-66
2022/08/12 11:14:32;;;;;;;12.90;2.20;;;;;;;29.49;48.06;100721.59;4950732;28;20042;-66
2022/08/12 11:17:06;;;;;;;6.75;2.72;;;;;;;29.66;48.01;100716.78;4934752;29;20031;-66
2022/08/12 11:19:34;;;;;;;4.65;2.25;;;;;;;29.84;48.07;100719.91;4951441;28;20097;-66
2022/08/12 11:22:00;;;;;;;4.85;2.25;;;;;;;29.98;46.85;100715.47;4947427;28;20023;-66
2022/08/12 11:24:26;;;;;;;6.80;2.28;;;;;;;30.08;46.93;100708.63;4939045;28;20028;-66
2022/08/12 11:26:53;;;;;;;8.25;2.85;;;;;;;29.90;47.27;100654.09;4942963;28;20548;-67
2022/08/12 11:29:20;;;;;;;6.45;2.40;;;;;;;30.46;45.96;100703.75;4934842;28;20020;-66
2022/08/12 11:31:45;;;;;;;8.65;2.70;;;;;;;30.64;46.05;100705.97;4935651;28;20034;-66
2022/08/12 11:34:11;;;;;;;7.05;2.78;;;;;;;30.85;44.90;100692.31;4950489;28;20031;-66
2022/08/12 11:36:37;;;;;;;4.18;2.67;;;;;;;30.98;45.44;100702.41;4951556;28;20501;-67
2022/08/12 11:39:03;;;;;;;5.05;2.38;;;;;;;31.13;44.79;100698.50;4941089;28;20109;-66
2022/08/12 11:41:28;;;;;;;7.25;2.38;;;;;;;31.34;44.33;100692.94;4932206;28;20032;-67
2022/08/12 11:43:54;;;;;;;8.32;2.35;;;;;;;31.60;45.11;100686.75;4936699;28;20388;-67
2022/08/12 11:46:19;;;;;;;7.85;2.47;;;;;;;32.10;43.07;100688.09;4944221;28;20035;-67
2022/08/12 11:48:45;;;;;;;6.90;2.15;;;;;;;33.18;42.24;100687.47;4942123;28;20460;-67
2022/08/12 11:51:10;;;;;;;5.72;2.97;;;;;;;34.31;42.33;100678.28;4995723;28;20038;-66
2022/08/12 11:53:36;;;;;;;5.32;2.42;;;;;;;35.72;41.81;100689.00;4944464;28;20495;-66
2022/08/12 11:56:05;;;;;;;5.80;2.58;;;;;;;36.44;39.04;100667.78;4950055;28;20035;-65
2022/08/12 11:58:31;;;;;;;8.00;2.53;;;;;;;37.23;39.68;100681.59;4951115;28;20031;-66
2022/08/12 12:00:57;;;;;;;9.93;2.55;;;;;;;38.18;37.65;100684.44;4940553;28;20054;-66
2022/08/12 12:03:23;;;;;;;10.23;2.42;;;;;;;39.09;36.44;100687.66;4919620;28;20105;-66
2022/08/12 12:05:49;;;;;;;10.30;2.47;;;;;;;39.68;36.53;100661.06;4931151;28;20074;-66
2022/08/12 12:08:21;;;;;;;8.00;3.00;;;;;;;40.30;33.83;100678.66;4922883;28;20039;-66
2022/08/12 12:10:49;;;;;;;4.82;1.85;;;;;;;40.71;33.27;100654.09;4925026;28;20101;-66
2022/08/12 12:13:14;;;;;;;4.70;2.08;;;;;;;41.01;32.81;100668.03;4937318;28;20035;-66
2022/08/12 12:15:39;;;;;;;10.43;2.30;;;;;;;41.21;30.77;100670.84;5000314;28;20035;-66
2022/08/12 12:18:05;;;;;;;4.65;1.90;;;;;;;41.58;32.88;100672.59;4926181;28;20736;-66
2022/08/12 12:20:30;;;;;;;12.68;3.22;;;;;;;42.10;30.89;100656.59;4938171;28;20038;-66
2022/08/12 12:22:56;;;;;;;4.20;2.00;;;;;;;42.66;29.13;100673.09;4946147;28;20023;-66
2022/08/12 12:25:21;;;;;;;3.30;2.13;;;;;;;42.66;27.60;100678.63;4939304;28;20363;-66
2022/08/12 12:27:52;;;;;;;8.15;2.65;;;;;;;42.71;29.12;100654.56;4931786;28;20521;-67
2022/08/12 12:30:17;;;;;;;11.95;2.15;;;;;;;43.16;27.40;100672.06;4930838;28;20557;-66
2022/08/12 12:32:43;;;;;;;4.68;2.10;;;;;;;42.81;26.76;100656.44;4935603;28;20027;-66
2022/08/12 12:35:08;;;;;;;6.50;2.40;;;;;;;42.68;27.03;100654.28;4951139;28;20031;-67
2022/08/12 12:37:34;;;;;;;5.10;2.40;;;;;;;43.14;27.48;100652.97;4949242;28;20031;-67
2022/08/12 12:39:59;;;;;;;8.23;2.30;;;;;;;43.38;27.02;100652.25;4949183;29;20061;-66
2022/08/12 12:42:24;;;;;;;6.88;2.40;;;;;;;43.19;26.36;100652.13;4935535;28;20063;-67
2022/08/12 12:44:50;;;;;;;4.65;2.13;;;;;;;43.15;25.86;100654.63;4945157;28;20499;-66
2022/08/12 12:47:15;;;;;;;3.95;2.15;;;;;;;43.52;26.81;100645.00;4931803;28;20425;-66
2022/08/12 12:49:41;;;;;;;10.45;2.75;;;;;;;43.66;25.39;100632.16;4930503;28;20097;-66
2022/08/12 12:52:07;;;;;;;13.30;2.40;;;;;;;43.61;24.88;100640.47;4935943;28;20552;-65
2022/08/12 12:54:32;;;;;;;8.00;2.50;;;;;;;43.12;25.76;100644.16;5002280;28;20035;-66
2022/08/12 12:56:57;;;;;;;9.65;2.70;;;;;;;43.27;26.42;100632.13;4937015;28;20023;-67
2022/08/12 12:59:26;;;;;;;3.95;2.53;;;;;;;42.63;26.71;100635.78;4935206;28;20027;-66
2022/08/12 13:01:52;;;;;;;4.18;2.20;;;;;;;41.70;26.70;100640.03;4933677;28;20716;-65
2022/08/12 13:04:17;;;;;;;4.18;2.33;;;;;;;41.10;26.67;100624.22;4935689;29;20093;-66
2022/08/12 13:06:44;;;;;;;7.68;2.20;;;;;;;40.17;26.54;100618.53;4933796;28;20069;-66
2022/08/12 13:09:11;;;;;;;5.97;2.20;;;;;;;38.76;27.35;100625.38;4932790;28;20666;-66
2022/08/12 13:11:37;;;;;;;8.00;2.65;;;;;;;37.68;28.07;100631.41;4940055;28;20481;-67
2022/08/12 13:14:04;;;;;;;13.55;2.90;;;;;;;37.01;29.11;100620.28;4941850;28;20027;-67
2022/08/12 13:16:29;;;;;;;4.72;2.30;;;;;;;36.58;30.79;100614.44;4948710;28;20485;-67